Time;durP1;ratioP1;P1;durP2;ratioP2;P2;SDS_P1;SDS_P2;PMS_P1;PMS_P2;Temp;Humidity;BMP_temperature;BMP_pressure;BME280_temperature;BME280_humidity;BME280_pressure;Samples;Min_cycle;Max_cycle;Signal;HPM_P1;HPM_P2
2022/09/07 00:01:25;;;;;;;29.52;22.60;;;;;;;;;;5070154;28;20049;-66
2022/09/07 00:03:55;;;;;;;23.90;18.77;;;;;;;;;;5071922;28;20036;-67
2022/09/07 00:06:22;;;;;;;25.98;21.05;;;;;;;;;;5072092;28;20048;-74
2022/09/07 00:08:48;;;;;;;22.98;17.98;;;;;;;;;;5075384;28;20102;-74
2022/09/07 00:11:18;;;;;;;27.63;20.58;;;;;;;;;;5074406;28;20063;-74
2022/09/07 00:13:45;;;;;;;21.85;17.23;;;;;;;;;;5074163;28;20028;-74
2022/09/07 00:16:13;;;;;;;27.88;19.40;;;;;;;;;;5075474;28;20032;-74
2022/09/07 00:18:39;;;;;;;26.08;20.65;;;;;;;;;;5073907;28;20389;-74
2022/09/07 00:21:07;;;;;;;24.13;17.27;;;;;;;;;;5075662;28;20086;-67
2022/09/07 00:23:33;;;;;;;26.15;20.00;;;;;;;;;;5075341;28;20374;-66
2022/09/07 00:26:00;;;;;;;29.42;22.70;;;;;;;;;;5059845;28;20429;-67
2022/09/07 00:28:26;;;;;;;31.77;22.17;;;;;;;;;;5071684;28;20036;-67
2022/09/07 00:30:52;;;;;;;27.10;21.67;;;;;;;;;;5075139;28;20083;-66
2022/09/07 00:33:18;;;;;;;28.48;19.10;;;;;;;;;;5074216;28;20033;-66
2022/09/07 00:35:45;;;;;;;27.75;20.75;;;;;;;;;;5073641;28;20048;-66
2022/09/07 00:38:11;;;;;;;30.42;22.27;;;;;;;;;;5056567;28;20175;-67
2022/09/07 00:40:37;;;;;;;24.98;18.23;;;;;;;;;;5054315;28;20049;-68
2022/09/07 00:43:04;;;;;;;23.25;18.17;;;;;;;;;;5055230;28;20058;-68
2022/09/07 00:45:30;;;;;;;18.92;13.35;;;;;;;;;;5069446;28;20053;-69
2022/09/07 00:48:06;;;;;;;23.92;15.82;;;;;;;;;;5053681;28;20075;-69
2022/09/07 00:50:38;;;;;;;24.23;17.23;;;;;;;;;;5070257;28;20494;-69
2022/09/07 00:53:08;;;;;;;22.15;14.70;;;;;;;;;;5070315;28;20037;-68
2022/09/07 00:55:35;;;;;;;17.33;8.57;;;;;;;;;;5070174;28;20041;-68
2022/09/07 00:58:02;;;;;;;13.20;5.15;;;;;;;;;;5053889;28;20382;-70
2022/09/07 01:00:28;;;;;;;14.05;5.40;;;;;;;;;;5070435;28;20538;-72
2022/09/07 01:02:55;;;;;;;13.27;4.47;;;;;;;;;;5053661;28;20037;-73
2022/09/07 01:05:42;;;;;;;8.98;4.22;;;;;;;;;;5053811;28;20498;-70
2022/09/07 01:08:08;;;;;;;7.82;3.63;;;;;;;;;;5046743;28;20049;-71
2022/09/07 01:10:35;;;;;;;7.82;2.50;;;;;;;;;;5053145;28;20044;-69
2022/09/07 01:13:01;;;;;;;4.55;2.28;;;;;;;;;;5020605;28;20040;-69
2022/09/07 01:15:41;;;;;;;4.70;2.20;;;;;;;;;;5054647;28;20044;-71
2022/09/07 01:18:15;;;;;;;7.32;2.50;;;;;;;;;;5052957;28;20084;-70
2022/09/07 01:20:44;;;;;;;6.15;2.35;;;;;;;;;;5053133;28;20044;-71
2022/09/07 01:23:24;;;;;;;6.03;2.30;;;;;;;;;;5053824;28;20516;-69
2022/09/07 01:26:01;;;;;;;9.25;2.40;;;;;;;;;;5067018;28;20123;-70
2022/09/07 01:28:29;;;;;;;11.23;2.80;;;;;;;;;;5044482;28;20154;-70
2022/09/07 01:31:00;;;;;;;6.60;2.22;;;;;;;;;;5058871;28;20611;-69
2022/09/07 01:33:41;;;;;;;4.68;2.17;;;;;;;;;;5060231;28;20047;-73
2022/09/07 01:36:20;;;;;;;4.72;1.80;;;;;;;;;;5090264;28;20509;-69
2022/09/07 01:38:49;;;;;;;4.00;1.80;;;;;;;;;;5072990;28;20508;-68
2022/09/07 01:41:22;;;;;;;4.65;2.20;;;;;;;;;;5056140;28;20044;-68
2022/09/07 01:44:07;;;;;;;4.22;2.00;;;;;;;;;;5072848;28;20048;-75
2022/09/07 01:46:42;;;;;;;3.80;2.55;;;;;;;;;;5072368;28;20535;-68
2022/09/07 01:49:14;;;;;;;5.55;2.85;;;;;;;;;;5073092;28;20032;-68
2022/09/07 01:51:43;;;;;;;8.43;2.90;;;;;;;;;;5072284;28;20293;-75
2022/09/07 01:54:12;;;;;;;5.60;2.97;;;;;;;;;;5072753;28;20040;-68
2022/09/07 01:56:40;;;;;;;6.03;3.00;;;;;;;;;;5070374;28;20048;-69
2022/09/07 01:59:16;;;;;;;4.75;2.70;;;;;;;;;;5060799;28;20165;-69
2022/09/07 02:01:48;;;;;;;6.35;3.20;;;;;;;;;;5063367;28;20037;-69
2022/09/07 02:04:23;;;;;;;7.50;3.45;;;;;;;;;;5051853;28;20041;-68
2022/09/07 02:06:58;;;;;;;5.43;3.10;;;;;;;;;;5052035;28;20049;-75
2022/09/07 02:09:36;;;;;;;5.10;3.10;;;;;;;;;;5052371;28;20045;-75
2022/09/07 02:12:05;;;;;;;7.68;2.88;;;;;;;;;;5069058;28;20543;-69
2022/09/07 02:14:34;;;;;;;4.55;3.00;;;;;;;;;;5056169;28;20393;-69
2022/09/07 02:17:00;;;;;;;7.65;3.35;;;;;;;;;;5072939;28;20048;-69
2022/09/07 02:19:29;;;;;;;7.78;3.47;;;;;;;;;;5057936;28;20101;-69
2022/09/07 02:22:00;;;;;;;5.55;3.20;;;;;;;;;;5073210;28;20090;-75
2022/09/07 02:24:28;;;;;;;6.75;3.75;;;;;;;;;;5072159;28;20432;-75
2022/09/07 02:26:55;;;;;;;6.35;4.20;;;;;;;;;;5060862;28;20044;-75
2022/09/07 02:29:21;;;;;;;8.48;4.15;;;;;;;;;;5065100;28;20059;-74
2022/09/07 02:31:49;;;;;;;8.80;4.70;;;;;;;;;;5051428;28;20045;-74
2022/09/07 02:34:15;;;;;;;7.65;4.80;;;;;;;;;;5067140;28;20048;-75
2022/09/07 02:36:45;;;;;;;7.75;4.75;;;;;;;;;;5072036;28;20040;-69
2022/09/07 02:39:11;;;;;;;6.25;3.75;;;;;;;;;;5071945;28;20075;-74
2022/09/07 02:41:38;;;;;;;6.78;4.00;;;;;;;;;;5072881;28;20037;-74
2022/09/07 02:44:07;;;;;;;7.22;4.55;;;;;;;;;;5043230;28;20044;-74
2022/09/07 02:46:42;;;;;;;7.50;4.88;;;;;;;;;;5069756;28;20049;-75
2022/09/07 02:49:22;;;;;;;6.15;4.22;;;;;;;;;;5054964;28;20036;-75
2022/09/07 02:52:07;;;;;;;7.70;4.28;;;;;;;;;;5071594;28;20436;-74
2022/09/07 02:54:51;;;;;;;6.00;4.53;;;;;;;;;;5071930;28;20519;-69
2022/09/07 02:57:36;;;;;;;9.05;4.80;;;;;;;;;;5049259;28;20443;-74
2022/09/07 03:00:14;;;;;;;8.02;4.78;;;;;;;;;;5071471;28;20036;-74
2022/09/07 03:03:00;;;;;;;6.22;4.10;;;;;;;;;;5071650;28;20044;-73
2022/09/07 03:05:26;;;;;;;8.63;4.28;;;;;;;;;;5055334;28;20093;-73
2022/09/07 03:08:00;;;;;;;6.53;5.10;;;;;;;;;;5071310;28;20068;-73
2022/09/07 03:10:26;;;;;;;9.52;5.20;;;;;;;;;;5072000;28;20054;-73
2022/09/07 03:12:52;;;;;;;6.53;4.13;;;;;;;;;;5071326;28;20505;-73
2022/09/07 03:15:26;;;;;;;6.18;4.82;;;;;;;;;;5071298;28;20072;-73
2022/09/07 03:17:53;;;;;;;7.88;4.78;;;;;;;;;;5061662;28;20055;-73
2022/09/07 03:20:20;;;;;;;7.80;4.57;;;;;;;;;;5065930;28;20087;-70
2022/09/07 03:22:47;;;;;;;7.78;4.50;;;;;;;;;;5071142;28;20044;-70
2022/09/07 03:25:13;;;;;;;6.25;4.30;;;;;;;;;;5071071;28;20090;-69
2022/09/07 03:27:39;;;;;;;7.82;4.68;;;;;;;;;;5066823;28;20033;-69
2022/09/07 03:30:06;;;;;;;5.55;4.13;;;;;;;;;;5050579;28;20041;-69
2022/09/07 03:32:33;;;;;;;9.27;4.75;;;;;;;;;;5051891;28;20040;-70
2022/09/07 03:35:00;;;;;;;5.53;4.45;;;;;;;;;;5070585;28;20032;-70
2022/09/07 03:37:26;;;;;;;6.95;4.60;;;;;;;;;;5070642;28;20043;-69
2022/09/07 03:39:52;;;;;;;6.15;4.85;;;;;;;;;;5071748;28;20037;-70
2022/09/07 03:42:19;;;;;;;6.97;5.25;;;;;;;;;;5070767;28;20085;-70
2022/09/07 03:44:45;;;;;;;6.88;5.32;;;;;;;;;;5057963;28;20028;-70
2022/09/07 03:47:11;;;;;;;8.02;5.20;;;;;;;;;;5070291;28;20485;-70
2022/09/07 03:49:37;;;;;;;6.68;5.10;;;;;;;;;;5070804;28;20489;-73
2022/09/07 03:52:03;;;;;;;8.20;5.72;;;;;;;;;;5053900;28;20109;-73
2022/09/07 03:54:29;;;;;;;8.77;5.60;;;;;;;;;;5072053;28;20047;-74
2022/09/07 03:56:56;;;;;;;7.63;3.97;;;;;;;;;;5070493;28;20044;-73
2022/09/07 03:59:22;;;;;;;6.95;5.50;;;;;;;;;;5053821;28;20070;-74
2022/09/07 04:01:48;;;;;;;7.90;4.90;;;;;;;;;;5060033;28;20047;-74
2022/09/07 04:04:14;;;;;;;7.53;5.57;;;;;;;;;;5049555;28;20040;-73
2022/09/07 04:06:40;;;;;;;8.20;5.82;;;;;;;;;;5049291;28;20045;-73
2022/09/07 04:09:07;;;;;;;8.15;5.95;;;;;;;;;;5050129;28;20072;-73
2022/09/07 04:11:34;;;;;;;10.43;6.18;;;;;;;;;;5050639;28;20072;-73
2022/09/07 04:14:00;;;;;;;9.30;6.15;;;;;;;;;;5049903;28;20041;-73
2022/09/07 04:16:26;;;;;;;8.95;5.75;;;;;;;;;;5050673;28;20544;-73
2022/09/07 04:18:57;;;;;;;10.95;6.22;;;;;;;;;;5052706;28;20127;-73
2022/09/07 04:21:24;;;;;;;9.82;6.82;;;;;;;;;;5070468;28;20123;-74
2022/09/07 04:23:50;;;;;;;9.38;6.90;;;;;;;;;;5070603;28;20448;-73
2022/09/07 04:26:18;;;;;;;9.70;6.55;;;;;;;;;;5070174;28;20044;-74
2022/09/07 04:28:44;;;;;;;10.05;7.15;;;;;;;;;;5057731;28;20045;-73
2022/09/07 04:31:11;;;;;;;9.63;7.28;;;;;;;;;;5070132;28;20072;-69
2022/09/07 04:33:37;;;;;;;9.25;6.90;;;;;;;;;;5070334;28;20041;-70
2022/09/07 04:36:03;;;;;;;12.55;7.22;;;;;;;;;;5069891;28;20032;-69
2022/09/07 04:38:29;;;;;;;8.50;6.22;;;;;;;;;;5070694;28;20040;-74
2022/09/07 04:41:25;;;;;;;10.88;7.43;;;;;;;;;;5070209;28;20049;-74
2022/09/07 04:43:55;;;;;;;12.63;7.72;;;;;;;;;;5062552;28;20586;-74
2022/09/07 04:46:23;;;;;;;10.02;7.60;;;;;;;;;;5086834;28;20048;-73
2022/09/07 04:48:49;;;;;;;10.93;7.80;;;;;;;;;;5070106;28;20127;-69
2022/09/07 04:51:16;;;;;;;17.30;8.63;;;;;;;;;;5053263;28;20043;-69
2022/09/07 04:53:42;;;;;;;11.98;8.07;;;;;;;;;;5073975;28;20044;-69
2022/09/07 04:56:08;;;;;;;6.97;5.60;;;;;;;;;;5073283;28;20123;-70
2022/09/07 04:58:35;;;;;;;9.75;7.97;;;;;;;;;;5073979;28;20509;-69
2022/09/07 05:01:02;;;;;;;13.38;8.75;;;;;;;;;;5073462;28;20048;-69
2022/09/07 05:03:29;;;;;;;9.02;7.40;;;;;;;;;;5073665;28;20401;-69
2022/09/07 05:05:55;;;;;;;9.52;7.88;;;;;;;;;;5073677;28;20064;-69
2022/09/07 05:08:21;;;;;;;10.30;7.10;;;;;;;;;;5056650;28;20412;-70
2022/09/07 05:10:53;;;;;;;9.30;6.88;;;;;;;;;;5073593;28;20040;-69
2022/09/07 05:13:20;;;;;;;7.22;6.05;;;;;;;;;;5073068;28;20040;-69
2022/09/07 05:15:46;;;;;;;10.73;9.38;;;;;;;;;;5073416;28;20123;-69
2022/09/07 05:18:12;;;;;;;11.50;8.93;;;;;;;;;;5044832;28;20044;-69
2022/09/07 05:20:39;;;;;;;12.52;9.55;;;;;;;;;;5070559;28;20040;-69
2022/09/07 05:23:05;;;;;;;11.70;9.00;;;;;;;;;;5073166;28;20074;-69
2022/09/07 05:25:31;;;;;;;10.68;8.02;;;;;;;;;;5074467;28;20393;-69
2022/09/07 05:27:57;;;;;;;11.43;9.15;;;;;;;;;;5065487;28;20432;-69
2022/09/07 05:30:24;;;;;;;11.73;9.23;;;;;;;;;;5068045;28;20045;-69
2022/09/07 05:32:50;;;;;;;10.30;9.20;;;;;;;;;;5040056;28;20028;-69
2022/09/07 05:35:17;;;;;;;10.48;8.45;;;;;;;;;;5072867;28;20445;-69
2022/09/07 05:37:44;;;;;;;9.73;8.70;;;;;;;;;;5072974;28;20048;-69
2022/09/07 05:40:10;;;;;;;9.32;7.57;;;;;;;;;;5055951;28;20040;-69
2022/09/07 05:42:36;;;;;;;12.55;9.32;;;;;;;;;;5071916;28;20500;-69
2022/09/07 05:45:03;;;;;;;9.63;8.63;;;;;;;;;;5061244;28;20037;-69
2022/09/07 05:47:30;;;;;;;11.40;8.90;;;;;;;;;;5055838;28;20067;-70
2022/09/07 05:49:56;;;;;;;12.07;9.13;;;;;;;;;;5072808;28;20036;-69
2022/09/07 05:52:22;;;;;;;11.93;8.90;;;;;;;;;;5072634;28;20444;-70
2022/09/07 05:54:48;;;;;;;8.32;7.07;;;;;;;;;;5072746;28;20118;-69
2022/09/07 05:57:14;;;;;;;12.82;9.02;;;;;;;;;;5072504;28;20040;-70
2022/09/07 05:59:40;;;;;;;14.75;10.57;;;;;;;;;;5072352;28;20036;-69
2022/09/07 06:02:07;;;;;;;13.48;10.35;;;;;;;;;;5072529;28;20086;-69
2022/09/07 06:04:33;;;;;;;14.68;10.65;;;;;;;;;;5072470;28;20473;-69
2022/09/07 06:06:59;;;;;;;15.13;10.90;;;;;;;;;;5072465;28;20047;-70
2022/09/07 06:09:25;;;;;;;13.73;10.65;;;;;;;;;;5072137;28;20385;-69
2022/09/07 06:11:51;;;;;;;14.10;11.30;;;;;;;;;;5072221;28;20036;-69
2022/09/07 06:14:17;;;;;;;9.68;8.23;;;;;;;;;;5088858;28;20040;-69
2022/09/07 06:16:43;;;;;;;14.15;11.00;;;;;;;;;;5072546;28;20036;-69
2022/09/07 06:19:09;;;;;;;14.45;11.70;;;;;;;;;;5059128;28;20074;-70
2022/09/07 06:21:37;;;;;;;9.60;8.60;;;;;;;;;;5055793;28;20453;-69
2022/09/07 06:24:07;;;;;;;13.77;11.35;;;;;;;;;;5072123;28;20048;-69
2022/09/07 06:26:33;;;;;;;14.25;11.43;;;;;;;;;;5071596;28;20036;-69
2022/09/07 06:28:59;;;;;;;13.65;10.10;;;;;;;;;;5059243;28;20106;-74
2022/09/07 06:31:25;;;;;;;15.05;11.20;;;;;;;;;;5071608;28;20056;-74
2022/09/07 06:33:51;;;;;;;15.30;11.73;;;;;;;;;;5057842;28;20064;-74
2022/09/07 06:36:19;;;;;;;14.70;11.50;;;;;;;;;;5071533;28;20041;-74
2022/09/07 06:38:45;;;;;;;14.23;10.95;;;;;;;;;;5071953;28;20048;-74
2022/09/07 06:41:11;;;;;;;14.38;11.02;;;;;;;;;;5071690;28;20101;-74
2022/09/07 06:43:38;;;;;;;15.10;11.00;;;;;;;;;;5071908;28;20045;-74
2022/09/07 06:46:04;;;;;;;15.50;12.63;;;;;;;;;;5071225;28;20106;-74
2022/09/07 06:48:31;;;;;;;16.58;12.88;;;;;;;;;;5071536;28;20053;-74
2022/09/07 06:50:59;;;;;;;18.60;13.88;;;;;;;;;;5054903;28;20048;-70
2022/09/07 06:53:25;;;;;;;17.65;15.30;;;;;;;;;;5071078;28;20170;-70
2022/09/07 06:55:52;;;;;;;19.35;14.40;;;;;;;;;;5071772;28;20072;-69
2022/09/07 06:58:18;;;;;;;18.90;15.60;;;;;;;;;;5071063;28;20097;-69
2022/09/07 07:00:44;;;;;;;23.42;15.55;;;;;;;;;;5071426;28;20045;-69
2022/09/07 07:03:10;;;;;;;23.80;15.77;;;;;;;;;;5071313;28;20048;-69
2022/09/07 07:05:36;;;;;;;17.63;14.50;;;;;;;;;;5070949;28;20040;-70
2022/09/07 07:08:03;;;;;;;20.08;15.95;;;;;;;;;;5054529;28;20036;-70
2022/09/07 07:10:29;;;;;;;19.17;15.10;;;;;;;;;;5071160;28;20385;-69
2022/09/07 07:12:55;;;;;;;17.80;14.27;;;;;;;;;;5072576;28;20447;-70
2022/09/07 07:15:22;;;;;;;17.13;13.85;;;;;;;;;;5054166;28;20507;-70
2022/09/07 07:17:48;;;;;;;19.25;14.95;;;;;;;;;;5062936;28;20102;-69
2022/09/07 07:20:14;;;;;;;27.13;15.93;;;;;;;;;;5065433;28;20052;-70
2022/09/07 07:22:40;;;;;;;22.15;16.30;;;;;;;;;;5054009;28;20048;-69
2022/09/07 07:25:06;;;;;;;19.38;15.00;;;;;;;;;;5071150;28;20177;-69
2022/09/07 07:27:32;;;;;;;18.50;14.27;;;;;;;;;;5067963;28;20028;-69
2022/09/07 07:29:58;;;;;;;19.25;14.43;;;;;;;;;;5061822;28;20044;-70
2022/09/07 07:32:25;;;;;;;18.38;13.73;;;;;;;;;;5070538;28;20036;-70
2022/09/07 07:34:51;;;;;;;20.65;14.98;;;;;;;;;;5071281;28;20436;-69
2022/09/07 07:37:17;;;;;;;20.10;16.27;;;;;;;;;;5070975;28;20041;-70
2022/09/07 07:39:43;;;;;;;30.90;19.88;;;;;;;;;;5070900;28;20488;-70
2022/09/07 07:42:11;;;;;;;25.95;17.95;;;;;;;;;;5054405;28;20040;-70
2022/09/07 07:44:37;;;;;;;24.98;18.40;;;;;;;;;;5070665;28;20047;-69
2022/09/07 07:47:03;;;;;;;32.58;21.33;;;;;;;;;;5070699;28;20558;-70
2022/09/07 07:49:29;;;;;;;27.90;19.98;;;;;;;;;;5067656;28;20055;-70
2022/09/07 07:51:56;;;;;;;33.05;20.67;;;;;;;;;;5059912;28;20052;-70
2022/09/07 07:54:22;;;;;;;27.73;19.98;;;;;;;;;;5070279;28;20044;-70
2022/09/07 07:56:48;;;;;;;36.72;23.20;;;;;;;;;;5080214;28;20044;-69
2022/09/07 07:59:14;;;;;;;34.70;21.98;;;;;;;;;;5047440;28;20047;-70
2022/09/07 08:01:40;;;;;;;32.75;21.05;;;;;;;;;;5070186;28;20040;-70
2022/09/07 08:04:06;;;;;;;31.55;20.13;;;;;;;;;;5054059;28;20044;-70
2022/09/07 08:06:32;;;;;;;31.08;21.05;;;;;;;;;;5071184;28;20044;-70
2022/09/07 08:08:59;;;;;;;36.80;23.52;;;;;;;;;;5070634;28;20048;-70
2022/09/07 08:11:25;;;;;;;31.98;23.48;;;;;;;;;;5070324;28;20520;-70
2022/09/07 08:13:51;;;;;;;30.00;20.45;;;;;;;;;;5070452;28;20047;-70
2022/09/07 08:16:18;;;;;;;25.42;17.60;;;;;;;;;;5070489;28;20080;-70
2022/09/07 08:18:44;;;;;;;26.33;17.52;;;;;;;;;;5056242;28;20536;-70
2022/09/07 08:21:11;;;;;;;26.30;18.63;;;;;;;;;;5054013;28;20067;-70
2022/09/07 08:23:37;;;;;;;23.27;16.88;;;;;;;;;;5070321;28;20072;-70
2022/09/07 08:26:04;;;;;;;22.85;16.70;;;;;;;;;;5070266;28;20044;-70
2022/09/07 08:28:31;;;;;;;21.52;15.57;;;;;;;;;;5061631;28;20041;-70
2022/09/07 08:30:57;;;;;;;17.67;12.95;;;;;;;;;;5056508;28;20424;-69
2022/09/07 08:33:24;;;;;;;18.23;13.38;;;;;;;;;;5074296;28;20493;-70
2022/09/07 08:35:54;;;;;;;14.00;10.95;;;;;;;;;;5074419;28;20098;-70
2022/09/07 08:38:20;;;;;;;11.65;9.35;;;;;;;;;;5074174;28;20068;-71
2022/09/07 08:40:46;;;;;;;13.48;8.57;;;;;;;;;;5056810;28;20052;-70
2022/09/07 08:43:22;;;;;;;10.60;7.35;;;;;;;;;;5074245;28;20036;-70
2022/09/07 08:45:50;;;;;;;8.77;6.90;;;;;;;;;;5056732;28;20053;-70
2022/09/07 08:48:19;;;;;;;9.93;6.60;;;;;;;;;;5073923;28;20089;-70
2022/09/07 08:50:51;;;;;;;6.72;5.40;;;;;;;;;;5073962;28;20071;-70
2022/09/07 08:53:19;;;;;;;7.47;5.40;;;;;;;;;;5073703;28;20049;-70
2022/09/07 08:55:48;;;;;;;7.30;5.28;;;;;;;;;;5073659;28;20053;-70
2022/09/07 08:58:20;;;;;;;5.65;4.78;;;;;;;;;;5073580;28;20052;-70
2022/09/07 09:00:50;;;;;;;6.25;5.00;;;;;;;;;;5073519;28;20129;-70
2022/09/07 09:03:25;;;;;;;7.25;4.72;;;;;;;;;;5073418;28;20040;-69
2022/09/07 09:05:54;;;;;;;7.72;4.93;;;;;;;;;;5056496;28;20052;-70
2022/09/07 09:08:26;;;;;;;6.65;4.80;;;;;;;;;;5073712;28;20052;-70
2022/09/07 09:10:58;;;;;;;6.60;4.55;;;;;;;;;;5056423;28;20044;-69
2022/09/07 09:13:44;;;;;;;7.13;4.47;;;;;;;;;;5056795;28;20473;-69
2022/09/07 09:16:10;;;;;;;6.40;4.50;;;;;;;;;;5061964;28;20045;-69
2022/09/07 09:18:45;;;;;;;4.85;3.95;;;;;;;;;;5057436;28;20053;-68
2022/09/07 09:21:15;;;;;;;4.88;3.70;;;;;;;;;;5073478;28;20044;-69
2022/09/07 09:23:42;;;;;;;8.60;4.53;;;;;;;;;;5072991;28;20423;-69
2022/09/07 09:26:14;;;;;;;5.40;3.80;;;;;;;;;;5073231;28;20397;-69
2022/09/07 09:28:40;;;;;;;6.82;3.90;;;;;;;;;;5060638;28;20041;-69
2022/09/07 09:31:15;;;;;;;5.60;3.53;;;;;;;;;;5056527;28;20489;-68
2022/09/07 09:33:41;;;;;;;4.95;3.42;;;;;;;;;;5073023;28;20501;-75
2022/09/07 09:36:22;;;;;;;6.13;3.60;;;;;;;;;;5056380;28;20040;-76
2022/09/07 09:38:48;;;;;;;4.38;3.00;;;;;;;;;;5072437;28;20040;-75
2022/09/07 09:41:15;;;;;;;5.50;3.67;;;;;;;;;;5072697;28;20044;-76
2022/09/07 09:43:45;;;;;;;4.78;3.38;;;;;;;;;;5072548;28;20093;-75
2022/09/07 09:46:32;;;;;;;6.78;3.33;;;;;;;;;;5072616;28;20080;-76
2022/09/07 09:49:04;;;;;;;4.63;3.05;;;;;;;;;;5073992;28;20046;-76
2022/09/07 09:51:34;;;;;;;5.68;2.55;;;;;;;;;;5074092;28;20513;-75
2022/09/07 09:54:07;;;;;;;3.53;2.58;;;;;;;;;;5073868;28;20536;-76
2022/09/07 09:56:41;;;;;;;3.60;2.38;;;;;;;;;;5055398;28;20048;-75
2022/09/07 09:59:19;;;;;;;4.07;2.20;;;;;;;;;;5056008;28;20044;-75
2022/09/07 10:01:45;;;;;;;4.00;2.45;;;;;;;;;;5073655;28;20063;-75
2022/09/07 10:04:17;;;;;;;4.10;2.20;;;;;;;;;;5072607;28;20515;-76
2022/09/07 10:06:50;;;;;;;3.33;2.10;;;;;;;;;;5072030;28;20401;-76
2022/09/07 10:09:18;;;;;;;3.80;2.00;;;;;;;;;;5072599;28;20070;-76
2022/09/07 10:11:49;;;;;;;4.10;1.90;;;;;;;;;;5072097;28;20424;-76
2022/09/07 10:14:36;;;;;;;3.85;2.22;;;;;;;;;;5055738;28;20498;-76
2022/09/07 10:17:10;;;;;;;4.03;1.63;;;;;;;;;;5069960;28;20036;-76
2022/09/07 10:19:37;;;;;;;3.33;1.80;;;;;;;;;;5061121;28;20044;-76
2022/09/07 10:22:21;;;;;;;3.15;1.70;;;;;;;;;;5072083;28;20036;-69
2022/09/07 10:24:47;;;;;;;4.65;2.13;;;;;;;;;;5071592;28;20485;-68
2022/09/07 10:27:32;;;;;;;3.38;1.80;;;;;;;;;;5072630;28;20036;-69
2022/09/07 10:29:59;;;;;;;3.90;1.80;;;;;;;;;;5062240;28;20462;-69
2022/09/07 10:32:28;;;;;;;3.15;1.90;;;;;;;;;;5071826;28;20044;-70
2022/09/07 10:35:00;;;;;;;4.03;1.67;;;;;;;;;;5071654;28;20119;-70
2022/09/07 10:37:35;;;;;;;3.47;1.60;;;;;;;;;;5072973;28;20391;-69
2022/09/07 10:40:13;;;;;;;4.32;2.25;;;;;;;;;;5054611;28;20037;-69
2022/09/07 10:42:42;;;;;;;3.60;1.80;;;;;;;;;;5071136;28;20028;-75
2022/09/07 10:45:08;;;;;;;5.22;1.98;;;;;;;;;;5071477;28;20064;-75
2022/09/07 10:47:53;;;;;;;4.00;1.88;;;;;;;;;;5071799;28;20067;-76
2022/09/07 10:50:19;;;;;;;3.70;2.20;;;;;;;;;;5070928;28;20079;-76
2022/09/07 10:52:52;;;;;;;3.30;1.60;;;;;;;;;;5054572;28;20052;-76
2022/09/07 10:55:35;;;;;;;3.40;2.03;;;;;;;;;;5073088;28;20527;-75
2022/09/07 10:58:11;;;;;;;3.17;1.70;;;;;;;;;;5054364;28;20040;-76
2022/09/07 11:00:41;;;;;;;2.72;1.60;;;;;;;;;;5072564;28;20032;-76
2022/09/07 11:03:11;;;;;;;3.60;1.75;;;;;;;;;;5058666;28;20091;-76
2022/09/07 11:05:43;;;;;;;3.13;2.00;;;;;;;;;;5071486;28;20459;-76
2022/09/07 11:08:26;;;;;;;3.42;1.92;;;;;;;;;;5072850;28;20818;-75
2022/09/07 11:10:52;;;;;;;2.50;1.73;;;;;;;;;;5054080;28;20072;-76
2022/09/07 11:13:21;;;;;;;3.90;2.03;;;;;;;;;;5071312;28;20408;-76
2022/09/07 11:15:54;;;;;;;3.75;2.00;;;;;;;;;;5054212;28;20051;-76
2022/09/07 11:18:25;;;;;;;4.88;2.10;;;;;;;;;;5058391;28;20067;-76
2022/09/07 11:20:57;;;;;;;4.18;2.40;;;;;;;;;;5071352;28;20071;-75
2022/09/07 11:23:29;;;;;;;5.13;2.58;;;;;;;;;;5060024;28;20045;-76
2022/09/07 11:26:01;;;;;;;4.93;2.90;;;;;;;;;;5069581;28;20127;-69
2022/09/07 11:28:34;;;;;;;3.40;2.20;;;;;;;;;;5070838;28;20051;-69
2022/09/07 11:31:04;;;;;;;4.50;1.90;;;;;;;;;;5071828;28;20041;-69
2022/09/07 11:33:34;;;;;;;2.92;2.30;;;;;;;;;;5072145;28;20062;-68
2022/09/07 11:36:02;;;;;;;4.95;2.15;;;;;;;;;;5070415;28;20396;-69
2022/09/07 11:38:35;;;;;;;2.75;1.83;;;;;;;;;;5072348;28;20497;-69
2022/09/07 11:41:20;;;;;;;2.90;1.88;;;;;;;;;;5070244;28;20086;-69
2022/09/07 11:44:08;;;;;;;4.20;2.17;;;;;;;;;;5070472;28;20037;-69
2022/09/07 11:46:46;;;;;;;3.58;1.65;;;;;;;;;;5067852;28;20497;-69
2022/09/07 11:49:18;;;;;;;2.90;2.10;;;;;;;;;;5070845;28;20503;-69
2022/09/07 11:51:48;;;;;;;3.22;2.33;;;;;;;;;;5070708;28;20040;-69
2022/09/07 11:54:29;;;;;;;3.78;3.05;;;;;;;;;;5053929;28;20079;-69
2022/09/07 11:57:04;;;;;;;4.90;2.53;;;;;;;;;;5070385;28;20044;-69
2022/09/07 11:59:41;;;;;;;4.20;2.70;;;;;;;;;;5071808;28;20119;-69
2022/09/07 12:02:17;;;;;;;3.53;2.15;;;;;;;;;;5072437;28;20169;-69
2022/09/07 12:04:46;;;;;;;3.58;2.13;;;;;;;;;;5075703;28;20040;-69
2022/09/07 12:07:16;;;;;;;3.33;2.20;;;;;;;;;;5075899;28;20040;-69
2022/09/07 12:10:08;;;;;;;2.42;1.80;;;;;;;;;;5058039;28;20485;-69
2022/09/07 12:12:41;;;;;;;3.33;1.90;;;;;;;;;;5067409;28;20045;-69
2022/09/07 12:15:19;;;;;;;3.15;2.20;;;;;;;;;;5069761;28;20043;-70
2022/09/07 12:18:04;;;;;;;3.42;2.30;;;;;;;;;;5058262;28;20045;-69
2022/09/07 12:20:40;;;;;;;3.53;2.17;;;;;;;;;;5072077;28;20045;-69
2022/09/07 12:23:15;;;;;;;2.90;1.50;;;;;;;;;;5075480;28;20040;-69
2022/09/07 12:25:46;;;;;;;3.03;1.85;;;;;;;;;;5057298;28;20036;-69
2022/09/07 12:28:16;;;;;;;5.10;2.20;;;;;;;;;;5065361;28;20116;-69
2022/09/07 12:30:52;;;;;;;4.03;2.50;;;;;;;;;;5071765;28;20048;-69
2022/09/07 12:33:19;;;;;;;4.32;2.58;;;;;;;;;;5074392;28;20101;-69
2022/09/07 12:35:45;;;;;;;3.33;2.38;;;;;;;;;;5074140;28;20503;-69
2022/09/07 12:38:17;;;;;;;4.70;2.60;;;;;;;;;;5073747;28;20454;-69
2022/09/07 12:40:45;;;;;;;4.88;3.00;;;;;;;;;;5059171;28;20048;-69
2022/09/07 12:43:14;;;;;;;4.55;2.10;;;;;;;;;;5037094;28;20076;-69
2022/09/07 12:45:41;;;;;;;4.50;2.65;;;;;;;;;;5053710;28;20443;-69
2022/09/07 12:48:16;;;;;;;4.65;2.47;;;;;;;;;;5053492;28;20108;-69
2022/09/07 12:51:06;;;;;;;3.67;2.20;;;;;;;;;;5037526;28;20095;-69
2022/09/07 12:53:51;;;;;;;2.88;1.92;;;;;;;;;;5053900;28;20044;-68
2022/09/07 12:56:17;;;;;;;3.25;1.90;;;;;;;;;;5036774;28;20060;-68
2022/09/07 12:58:43;;;;;;;3.58;2.03;;;;;;;;;;5037128;28;20047;-69
2022/09/07 13:01:09;;;;;;;2.80;1.77;;;;;;;;;;5053359;28;20041;-69
2022/09/07 13:03:43;;;;;;;3.60;1.75;;;;;;;;;;5053617;28;20167;-69
2022/09/07 13:06:24;;;;;;;3.42;2.10;;;;;;;;;;5054366;28;20073;-69
2022/09/07 13:09:08;;;;;;;4.78;3.15;;;;;;;;;;5054117;28;20041;-76
2022/09/07 13:11:38;;;;;;;5.57;3.20;;;;;;;;;;5056388;28;20037;-76
2022/09/07 13:14:04;;;;;;;4.15;2.70;;;;;;;;;;5064537;28;20041;-76
2022/09/07 13:16:38;;;;;;;3.90;2.40;;;;;;;;;;5054052;28;20513;-76
2022/09/07 13:19:05;;;;;;;5.82;2.67;;;;;;;;;;5074275;28;20161;-76
2022/09/07 13:21:36;;;;;;;5.63;2.90;;;;;;;;;;5074318;28;20045;-76
2022/09/07 13:24:22;;;;;;;4.82;2.70;;;;;;;;;;5057708;28;20055;-76
2022/09/07 13:26:58;;;;;;;5.32;2.55;;;;;;;;;;5068005;28;20045;-76
2022/09/07 13:29:30;;;;;;;4.03;2.72;;;;;;;;;;5060466;28;20032;-76
2022/09/07 13:32:05;;;;;;;3.95;2.90;;;;;;;;;;5061010;28;20045;-76
2022/09/07 13:34:32;;;;;;;;;;;;;;;;;;5046095;28;20094;-76
2022/09/07 13:36:59;;;;;;;11.80;6.88;;;;;;;;;;5045007;28;20361;-76
2022/09/07 13:39:26;;;;;;;8.63;4.60;;;;;;;;;;5053978;28;20033;-76
2022/09/07 13:41:54;;;;;;;10.45;5.38;;;;;;;;;;5054235;28;20059;-76
2022/09/07 13:44:25;;;;;;;12.52;7.40;;;;;;;;;;5053775;28;20505;-76
2022/09/07 13:46:58;;;;;;;8.50;5.40;;;;;;;;;;5036841;28;20494;-75
2022/09/07 13:49:24;;;;;;;5.28;2.97;;;;;;;;;;5053430;28;20048;-76
2022/09/07 13:52:05;;;;;;;4.15;2.42;;;;;;;;;;5053522;28;20040;-75
2022/09/07 13:54:46;;;;;;;5.65;2.10;;;;;;;;;;5039365;28;20510;-69
2022/09/07 13:57:18;;;;;;;3.38;1.95;;;;;;;;;;5072161;28;20124;-69
2022/09/07 13:59:46;;;;;;;3.97;1.83;;;;;;;;;;5073691;28;20397;-69
2022/09/07 14:02:31;;;;;;;4.45;2.10;;;;;;;;;;5072312;28;20426;-69
2022/09/07 14:04:59;;;;;;;3.30;1.80;;;;;;;;;;5072324;28;20033;-69
2022/09/07 14:07:26;;;;;;;3.92;1.58;;;;;;;;;;5072027;28;20429;-68
2022/09/07 14:10:06;;;;;;;3.80;1.80;;;;;;;;;;5072248;28;20043;-69
2022/09/07 14:12:40;;;;;;;3.60;1.60;;;;;;;;;;5072343;28;20058;-69
2022/09/07 14:15:07;;;;;;;5.38;2.20;;;;;;;;;;5073152;28;20032;-69
2022/09/07 14:17:33;;;;;;;4.45;2.20;;;;;;;;;;5065751;28;20490;-69
2022/09/07 14:20:00;;;;;;;3.50;2.25;;;;;;;;;;5064580;28;20036;-69
2022/09/07 14:22:30;;;;;;;4.40;2.00;;;;;;;;;;5054901;28;20040;-69
2022/09/07 14:24:57;;;;;;;4.72;2.85;;;;;;;;;;5071217;28;20447;-69
2022/09/07 14:27:43;;;;;;;4.28;2.45;;;;;;;;;;5069698;28;20040;-69
2022/09/07 14:30:15;;;;;;;5.82;3.10;;;;;;;;;;5063452;28;20036;-69
2022/09/07 14:32:42;;;;;;;7.15;4.03;;;;;;;;;;5072902;28;20036;-69
2022/09/07 14:35:16;;;;;;;5.50;3.10;;;;;;;;;;5072855;28;20390;-69
2022/09/07 14:37:43;;;;;;;6.80;2.90;;;;;;;;;;5088388;28;20032;-69
2022/09/07 14:40:14;;;;;;;4.50;2.78;;;;;;;;;;5072768;28;20473;-69
2022/09/07 14:42:41;;;;;;;7.35;2.88;;;;;;;;;;5054805;28;20116;-69
2022/09/07 14:45:22;;;;;;;4.88;3.20;;;;;;;;;;5072398;28;20137;-68
2022/09/07 14:47:53;;;;;;;5.95;3.25;;;;;;;;;;5088589;28;20447;-69
2022/09/07 14:50:24;;;;;;;5.80;3.58;;;;;;;;;;5071327;28;20040;-69
2022/09/07 14:52:51;;;;;;;6.28;4.00;;;;;;;;;;5071590;28;20519;-69